sensor_id;sensor_type;location;lat;lon;timestamp;temperature;humidity
58153;DHT22;43967;51.634;5.566;2022-11-23T00:04:13;19.90;60.90
58153;DHT22;43967;51.634;5.566;2022-11-23T00:09:14;19.90;60.90
58153;DHT22;43967;51.634;5.566;2022-11-23T00:14:15;19.90;60.90
58153;DHT22;43967;51.634;5.566;2022-11-23T00:19:16;19.90;60.90
58153;DHT22;43967;51.634;5.566;2022-11-23T00:24:17;19.80;60.80
58153;DHT22;43967;51.634;5.566;2022-11-23T00:29:18;19.80;60.90
58153;DHT22;43967;51.634;5.566;2022-11-23T00:34:19;19.80;60.80
58153;DHT22;43967;51.634;5.566;2022-11-23T00:39:20;19.80;60.80
58153;DHT22;43967;51.634;5.566;2022-11-23T00:44:21;19.80;60.80
58153;DHT22;43967;51.634;5.566;2022-11-23T00:49:22;19.80;60.80
58153;DHT22;43967;51.634;5.566;2022-11-23T00:54:23;19.80;60.80
58153;DHT22;43967;51.634;5.566;2022-11-23T00:59:25;19.70;60.80
58153;DHT22;43967;51.634;5.566;2022-11-23T01:04:26;19.70;60.70
58153;DHT22;43967;51.634;5.566;2022-11-23T01:09:27;19.70;60.70
58153;DHT22;43967;51.634;5.566;2022-11-23T01:14:28;19.70;60.70
58153;DHT22;43967;51.634;5.566;2022-11-23T01:19:29;19.70;60.70
58153;DHT22;43967;51.634;5.566;2022-11-23T01:24:30;19.70;60.70
58153;DHT22;43967;51.634;5.566;2022-11-23T01:29:31;19.70;60.70
58153;DHT22;43967;51.634;5.566;2022-11-23T01:34:33;19.70;60.70
58153;DHT22;43967;51.634;5.566;2022-11-23T01:39:34;19.70;60.70
58153;DHT22;43967;51.634;5.566;2022-11-23T01:44:36;19.70;60.70
58153;DHT22;43967;51.634;5.566;2022-11-23T01:49:48;19.70;60.70
58153;DHT22;43967;51.634;5.566;2022-11-23T01:54:53;19.70;60.70
58153;DHT22;43967;51.634;5.566;2022-11-23T01:59:55;19.60;60.70
58153;DHT22;43967;51.634;5.566;2022-11-23T02:04:59;19.60;60.70
58153;DHT22;43967;51.634;5.566;2022-11-23T02:10:01;19.60;60.70
58153;DHT22;43967;51.634;5.566;2022-11-23T02:15:02;19.60;60.70
58153;DHT22;43967;51.634;5.566;2022-11-23T02:25:34;19.60;60.70
58153;DHT22;43967;51.634;5.566;2022-11-23T02:30:42;19.60;60.70
58153;DHT22;43967;51.634;5.566;2022-11-23T02:35:52;19.60;60.60
58153;DHT22;43967;51.634;5.566;2022-11-23T02:40:53;19.60;60.60
58153;DHT22;43967;51.634;5.566;2022-11-23T02:45:55;19.60;60.60
58153;DHT22;43967;51.634;5.566;2022-11-23T02:50:57;19.60;60.60
58153;DHT22;43967;51.634;5.566;2022-11-23T02:55:58;19.60;60.60
58153;DHT22;43967;51.634;5.566;2022-11-23T03:00:59;19.60;60.60
58153;DHT22;43967;51.634;5.566;2022-11-23T03:06:00;19.50;60.50
58153;DHT22;43967;51.634;5.566;2022-11-23T03:11:01;19.60;60.60
58153;DHT22;43967;51.634;5.566;2022-11-23T03:16:03;19.50;60.50
58153;DHT22;43967;51.634;5.566;2022-11-23T03:21:05;19.50;60.50
58153;DHT22;43967;51.634;5.566;2022-11-23T03:26:06;19.50;60.50
58153;DHT22;43967;51.634;5.566;2022-11-23T03:31:07;19.50;60.50
58153;DHT22;43967;51.634;5.566;2022-11-23T03:36:08;19.50;60.50
58153;DHT22;43967;51.634;5.566;2022-11-23T03:41:09;19.50;60.50
58153;DHT22;43967;51.634;5.566;2022-11-23T03:46:10;19.50;60.60
58153;DHT22;43967;51.634;5.566;2022-11-23T03:51:11;19.50;60.60
58153;DHT22;43967;51.634;5.566;2022-11-23T03:56:13;19.50;60.50
58153;DHT22;43967;51.634;5.566;2022-11-23T04:01:14;19.50;60.50
58153;DHT22;43967;51.634;5.566;2022-11-23T04:06:15;19.50;60.50
58153;DHT22;43967;51.634;5.566;2022-11-23T04:11:16;19.40;60.40
58153;DHT22;43967;51.634;5.566;2022-11-23T04:16:17;19.40;60.40
58153;DHT22;43967;51.634;5.566;2022-11-23T04:21:18;19.40;60.40
58153;DHT22;43967;51.634;5.566;2022-11-23T04:26:19;19.40;60.40
58153;DHT22;43967;51.634;5.566;2022-11-23T04:31:20;19.40;60.40
58153;DHT22;43967;51.634;5.566;2022-11-23T04:36:22;19.40;60.40
58153;DHT22;43967;51.634;5.566;2022-11-23T04:41:23;19.40;60.40
58153;DHT22;43967;51.634;5.566;2022-11-23T04:46:24;19.40;60.50
58153;DHT22;43967;51.634;5.566;2022-11-23T04:51:25;19.40;60.40
58153;DHT22;43967;51.634;5.566;2022-11-23T04:56:27;19.40;60.50
58153;DHT22;43967;51.634;5.566;2022-11-23T05:01:28;19.40;60.60
58153;DHT22;43967;51.634;5.566;2022-11-23T05:06:29;19.40;60.60
58153;DHT22;43967;51.634;5.566;2022-11-23T05:11:30;19.40;60.60
58153;DHT22;43967;51.634;5.566;2022-11-23T05:16:31;19.40;60.50
58153;DHT22;43967;51.634;5.566;2022-11-23T05:21:32;19.40;60.50
58153;DHT22;43967;51.634;5.566;2022-11-23T05:26:33;19.30;60.40
58153;DHT22;43967;51.634;5.566;2022-11-23T05:31:34;19.30;60.40
58153;DHT22;43967;51.634;5.566;2022-11-23T05:36:35;19.30;60.60
58153;DHT22;43967;51.634;5.566;2022-11-23T05:41:36;19.40;61.20
58153;DHT22;43967;51.634;5.566;2022-11-23T05:46:37;19.30;60.90
58153;DHT22;43967;51.634;5.566;2022-11-23T05:51:38;19.30;60.80
58153;DHT22;43967;51.634;5.566;2022-11-23T05:56:39;19.30;60.60
58153;DHT22;43967;51.634;5.566;2022-11-23T06:01:40;19.30;60.60
58153;DHT22;43967;51.634;5.566;2022-11-23T06:06:42;19.30;60.60
58153;DHT22;43967;51.634;5.566;2022-11-23T06:11:43;19.30;60.60
58153;DHT22;43967;51.634;5.566;2022-11-23T06:16:44;19.30;60.60
58153;DHT22;43967;51.634;5.566;2022-11-23T06:21:45;19.30;60.60
58153;DHT22;43967;51.634;5.566;2022-11-23T06:26:46;19.30;60.60
58153;DHT22;43967;51.634;5.566;2022-11-23T06:31:47;19.30;60.60
58153;DHT22;43967;51.634;5.566;2022-11-23T06:36:48;19.30;60.50
58153;DHT22;43967;51.634;5.566;2022-11-23T06:41:49;19.30;60.50
58153;DHT22;43967;51.634;5.566;2022-11-23T06:46:50;19.30;60.50
58153;DHT22;43967;51.634;5.566;2022-11-23T06:51:51;19.30;60.50
58153;DHT22;43967;51.634;5.566;2022-11-23T06:56:52;19.30;60.50
58153;DHT22;43967;51.634;5.566;2022-11-23T07:01:53;19.30;60.40
58153;DHT22;43967;51.634;5.566;2022-11-23T07:06:55;19.20;60.40
58153;DHT22;43967;51.634;5.566;2022-11-23T07:11:56;19.20;60.40
58153;DHT22;43967;51.634;5.566;2022-11-23T07:16:57;19.20;60.40
58153;DHT22;43967;51.634;5.566;2022-11-23T07:21:58;19.20;60.40
58153;DHT22;43967;51.634;5.566;2022-11-23T07:27:00;19.20;60.40
58153;DHT22;43967;51.634;5.566;2022-11-23T07:32:01;19.20;60.70
58153;DHT22;43967;51.634;5.566;2022-11-23T07:37:02;19.10;61.00
58153;DHT22;43967;51.634;5.566;2022-11-23T07:42:03;19.10;61.20
58153;DHT22;43967;51.634;5.566;2022-11-23T07:47:05;19.10;61.40
58153;DHT22;43967;51.634;5.566;2022-11-23T07:52:06;19.10;61.50
58153;DHT22;43967;51.634;5.566;2022-11-23T07:57:07;19.10;61.80
58153;DHT22;43967;51.634;5.566;2022-11-23T08:02:10;19.00;61.50
58153;DHT22;43967;51.634;5.566;2022-11-23T08:07:12;18.90;60.90
58153;DHT22;43967;51.634;5.566;2022-11-23T08:12:22;18.80;60.90
58153;DHT22;43967;51.634;5.566;2022-11-23T08:17:24;18.80;61.30
58153;DHT22;43967;51.634;5.566;2022-11-23T08:22:25;18.80;61.10
58153;DHT22;43967;51.634;5.566;2022-11-23T08:27:27;18.80;61.00
58153;DHT22;43967;51.634;5.566;2022-11-23T08:32:28;18.90;60.90
58153;DHT22;43967;51.634;5.566;2022-11-23T08:37:29;18.90;60.80
58153;DHT22;43967;51.634;5.566;2022-11-23T08:42:30;18.90;60.60
58153;DHT22;43967;51.634;5.566;2022-11-23T08:47:35;19.00;60.50
58153;DHT22;43967;51.634;5.566;2022-11-23T08:52:38;19.00;60.50
58153;DHT22;43967;51.634;5.566;2022-11-23T08:57:39;19.10;60.20
58153;DHT22;43967;51.634;5.566;2022-11-23T09:02:40;19.20;60.30
58153;DHT22;43967;51.634;5.566;2022-11-23T09:07:41;19.20;60.40
58153;DHT22;43967;51.634;5.566;2022-11-23T09:12:43;19.50;61.90
58153;DHT22;43967;51.634;5.566;2022-11-23T09:17:44;19.60;62.90
58153;DHT22;43967;51.634;5.566;2022-11-23T09:22:54;19.70;62.90
58153;DHT22;43967;51.634;5.566;2022-11-23T09:27:57;19.70;63.90
58153;DHT22;43967;51.634;5.566;2022-11-23T09:32:58;19.70;64.40
58153;DHT22;43967;51.634;5.566;2022-11-23T09:37:59;19.80;63.80
58153;DHT22;43967;51.634;5.566;2022-11-23T09:43:29;19.80;63.00
58153;DHT22;43967;51.634;5.566;2022-11-23T09:48:54;19.70;62.80
58153;DHT22;43967;51.634;5.566;2022-11-23T10:04:33;19.40;61.20
58153;DHT22;43967;51.634;5.566;2022-11-23T10:10:22;19.40;60.80
58153;DHT22;43967;51.634;5.566;2022-11-23T10:15:27;18.40;56.70
58153;DHT22;43967;51.634;5.566;2022-11-23T10:21:07;19.00;59.90
58153;DHT22;43967;51.634;5.566;2022-11-23T10:26:17;19.30;60.00
58153;DHT22;43967;51.634;5.566;2022-11-23T10:31:26;19.60;60.00
58153;DHT22;43967;51.634;5.566;2022-11-23T10:36:27;19.50;59.70
58153;DHT22;43967;51.634;5.566;2022-11-23T10:41:29;19.50;59.70
58153;DHT22;43967;51.634;5.566;2022-11-23T10:51:34;19.40;59.70
58153;DHT22;43967;51.634;5.566;2022-11-23T10:56:45;19.50;59.90
58153;DHT22;43967;51.634;5.566;2022-11-23T11:01:59;19.50;59.70
58153;DHT22;43967;51.634;5.566;2022-11-23T11:07:30;19.40;59.90
58153;DHT22;43967;51.634;5.566;2022-11-23T11:12:34;19.50;59.70
58153;DHT22;43967;51.634;5.566;2022-11-23T11:17:39;19.50;60.10
58153;DHT22;43967;51.634;5.566;2022-11-23T11:22:40;19.50;60.20
58153;DHT22;43967;51.634;5.566;2022-11-23T11:27:50;19.40;60.20
58153;DHT22;43967;51.634;5.566;2022-11-23T11:33:02;19.30;59.40
58153;DHT22;43967;51.634;5.566;2022-11-23T11:43:34;19.50;60.80
58153;DHT22;43967;51.634;5.566;2022-11-23T11:49:05;19.60;60.60
58153;DHT22;43967;51.634;5.566;2022-11-23T11:59:36;19.40;57.50
58153;DHT22;43967;51.634;5.566;2022-11-23T12:04:44;19.40;58.80
58153;DHT22;43967;51.634;5.566;2022-11-23T12:09:51;19.50;59.90
58153;DHT22;43967;51.634;5.566;2022-11-23T12:14:53;19.50;59.70
58153;DHT22;43967;51.634;5.566;2022-11-23T12:25:41;19.50;60.30
58153;DHT22;43967;51.634;5.566;2022-11-23T12:31:13;19.50;60.50
58153;DHT22;43967;51.634;5.566;2022-11-23T12:41:53;19.70;60.70
58153;DHT22;43967;51.634;5.566;2022-11-23T12:47:16;19.60;60.70
58153;DHT22;43967;51.634;5.566;2022-11-23T12:57:45;19.40;60.10
58153;DHT22;43967;51.634;5.566;2022-11-23T13:08:23;19.90;60.60
58153;DHT22;43967;51.634;5.566;2022-11-23T13:19:30;20.50;59.40
58153;DHT22;43967;51.634;5.566;2022-11-23T13:24:37;20.70;59.70
58153;DHT22;43967;51.634;5.566;2022-11-23T13:30:01;20.90;58.80
58153;DHT22;43967;51.634;5.566;2022-11-23T13:40:30;21.00;58.60
58153;DHT22;43967;51.634;5.566;2022-11-23T13:45:32;21.00;58.50
58153;DHT22;43967;51.634;5.566;2022-11-23T13:50:36;21.00;58.50
58153;DHT22;43967;51.634;5.566;2022-11-23T13:55:38;20.70;56.80
58153;DHT22;43967;51.634;5.566;2022-11-23T14:00:58;20.80;58.40
58153;DHT22;43967;51.634;5.566;2022-11-23T14:06:00;20.90;58.70
58153;DHT22;43967;51.634;5.566;2022-11-23T14:11:10;21.10;58.70
58153;DHT22;43967;51.634;5.566;2022-11-23T14:16:16;21.20;59.00
58153;DHT22;43967;51.634;5.566;2022-11-23T14:21:35;21.30;59.20
58153;DHT22;43967;51.634;5.566;2022-11-23T14:26:54;21.20;59.30
58153;DHT22;43967;51.634;5.566;2022-11-23T14:43:13;20.90;58.90
58153;DHT22;43967;51.634;5.566;2022-11-23T14:48:31;20.90;59.10
58153;DHT22;43967;51.634;5.566;2022-11-23T14:53:43;20.50;60.00
58153;DHT22;43967;51.634;5.566;2022-11-23T14:58:45;20.60;60.10
58153;DHT22;43967;51.634;5.566;2022-11-23T15:04:05;20.60;60.80
58153;DHT22;43967;51.634;5.566;2022-11-23T15:09:23;20.50;59.90
58153;DHT22;43967;51.634;5.566;2022-11-23T15:14:30;20.50;60.10
58153;DHT22;43967;51.634;5.566;2022-11-23T15:19:31;20.40;60.10
58153;DHT22;43967;51.634;5.566;2022-11-23T15:24:33;20.40;60.30
58153;DHT22;43967;51.634;5.566;2022-11-23T15:29:36;20.10;59.30
58153;DHT22;43967;51.634;5.566;2022-11-23T15:34:37;19.80;60.10
58153;DHT22;43967;51.634;5.566;2022-11-23T15:39:39;20.00;60.70
58153;DHT22;43967;51.634;5.566;2022-11-23T15:44:40;20.00;60.50
58153;DHT22;43967;51.634;5.566;2022-11-23T15:49:41;20.10;60.50
58153;DHT22;43967;51.634;5.566;2022-11-23T15:54:43;20.10;60.40
58153;DHT22;43967;51.634;5.566;2022-11-23T15:59:53;20.10;60.40
58153;DHT22;43967;51.634;5.566;2022-11-23T16:05:14;20.00;60.30
58153;DHT22;43967;51.634;5.566;2022-11-23T16:20:34;19.50;61.80
58153;DHT22;43967;51.634;5.566;2022-11-23T16:25:35;19.50;61.30
58153;DHT22;43967;51.634;5.566;2022-11-23T16:30:43;19.60;63.60
58153;DHT22;43967;51.634;5.566;2022-11-23T16:35:46;19.70;64.30
58153;DHT22;43967;51.634;5.566;2022-11-23T16:40:47;19.70;64.30
58153;DHT22;43967;51.634;5.566;2022-11-23T16:45:50;19.70;65.00
58153;DHT22;43967;51.634;5.566;2022-11-23T16:50:52;19.80;64.40
58153;DHT22;43967;51.634;5.566;2022-11-23T16:55:55;19.90;65.10
58153;DHT22;43967;51.634;5.566;2022-11-23T17:00:56;20.00;65.70
58153;DHT22;43967;51.634;5.566;2022-11-23T17:05:57;20.00;65.30
58153;DHT22;43967;51.634;5.566;2022-11-23T17:10:58;20.10;65.00
58153;DHT22;43967;51.634;5.566;2022-11-23T17:15:59;20.10;65.00
58153;DHT22;43967;51.634;5.566;2022-11-23T17:21:00;20.10;65.00
58153;DHT22;43967;51.634;5.566;2022-11-23T17:26:03;19.90;63.40
58153;DHT22;43967;51.634;5.566;2022-11-23T17:31:04;19.60;63.60
58153;DHT22;43967;51.634;5.566;2022-11-23T17:36:07;19.60;64.60
58153;DHT22;43967;51.634;5.566;2022-11-23T17:41:09;19.70;64.70
58153;DHT22;43967;51.634;5.566;2022-11-23T17:46:17;19.80;64.50
58153;DHT22;43967;51.634;5.566;2022-11-23T17:51:19;19.90;63.00
58153;DHT22;43967;51.634;5.566;2022-11-23T17:56:22;19.50;61.80
58153;DHT22;43967;51.634;5.566;2022-11-23T18:01:24;19.40;62.60
58153;DHT22;43967;51.634;5.566;2022-11-23T18:06:25;19.40;62.70
58153;DHT22;43967;51.634;5.566;2022-11-23T18:11:26;19.30;62.80
58153;DHT22;43967;51.634;5.566;2022-11-23T18:16:27;19.40;62.90
58153;DHT22;43967;51.634;5.566;2022-11-23T18:21:28;19.30;63.20
58153;DHT22;43967;51.634;5.566;2022-11-23T18:26:29;19.30;63.30
58153;DHT22;43967;51.634;5.566;2022-11-23T18:31:30;19.30;63.50
58153;DHT22;43967;51.634;5.566;2022-11-23T18:36:31;19.30;63.50
58153;DHT22;43967;51.634;5.566;2022-11-23T18:41:32;19.20;63.60
58153;DHT22;43967;51.634;5.566;2022-11-23T18:46:33;19.20;63.50
58153;DHT22;43967;51.634;5.566;2022-11-23T18:51:34;19.10;63.70
58153;DHT22;43967;51.634;5.566;2022-11-23T18:56:35;19.10;63.60
58153;DHT22;43967;51.634;5.566;2022-11-23T19:24:29;19.00;63.80
58153;DHT22;43967;51.634;5.566;2022-11-23T20:06:56;19.30;64.00
58153;DHT22;43967;51.634;5.566;2022-11-23T20:13:02;19.40;64.10
58153;DHT22;43967;51.634;5.566;2022-11-23T20:31:43;19.40;66.10
58153;DHT22;43967;51.634;5.566;2022-11-23T20:36:56;19.50;65.30
58153;DHT22;43967;51.634;5.566;2022-11-23T21:56:42;19.20;64.00
58153;DHT22;43967;51.634;5.566;2022-11-23T22:01:44;19.20;64.10
58153;DHT22;43967;51.634;5.566;2022-11-23T22:06:45;19.30;64.40
58153;DHT22;43967;51.634;5.566;2022-11-23T22:11:46;19.40;64.20
58153;DHT22;43967;51.634;5.566;2022-11-23T22:16:48;19.40;64.10
58153;DHT22;43967;51.634;5.566;2022-11-23T22:21:50;19.50;64.10
58153;DHT22;43967;51.634;5.566;2022-11-23T22:26:51;19.50;64.10
58153;DHT22;43967;51.634;5.566;2022-11-23T22:31:52;19.50;64.10
58153;DHT22;43967;51.634;5.566;2022-11-23T22:36:53;19.50;64.00
58153;DHT22;43967;51.634;5.566;2022-11-23T22:41:54;19.50;64.00
58153;DHT22;43967;51.634;5.566;2022-11-23T22:46:55;19.50;63.90
58153;DHT22;43967;51.634;5.566;2022-11-23T22:51:58;19.40;63.80
58153;DHT22;43967;51.634;5.566;2022-11-23T22:56:59;19.50;63.80
58153;DHT22;43967;51.634;5.566;2022-11-23T23:02:00;19.50;63.80
58153;DHT22;43967;51.634;5.566;2022-11-23T23:07:01;19.40;63.70
58153;DHT22;43967;51.634;5.566;2022-11-23T23:12:02;19.40;63.80
58153;DHT22;43967;51.634;5.566;2022-11-23T23:17:03;19.40;63.50
58153;DHT22;43967;51.634;5.566;2022-11-23T23:22:05;19.40;63.50
58153;DHT22;43967;51.634;5.566;2022-11-23T23:27:06;19.40;63.50
58153;DHT22;43967;51.634;5.566;2022-11-23T23:32:07;19.50;63.40
58153;DHT22;43967;51.634;5.566;2022-11-23T23:37:12;19.40;63.30
58153;DHT22;43967;51.634;5.566;2022-11-23T23:42:13;19.40;63.30
58153;DHT22;43967;51.634;5.566;2022-11-23T23:47:14;19.50;63.30
58153;DHT22;43967;51.634;5.566;2022-11-23T23:52:16;19.40;63.10
58153;DHT22;43967;51.634;5.566;2022-11-23T23:57:17;19.40;63.20
